createdAt,value
2022-12-27T00:01:31.622Z,7.07
2022-12-27T00:03:59.047Z,8.40
2022-12-27T00:06:26.952Z,6.22
2022-12-27T00:08:55.078Z,10.25
2022-12-27T00:11:26.292Z,6.45
2022-12-27T00:13:52.935Z,5.85
2022-12-27T00:16:20.884Z,5.80
2022-12-27T00:18:48.157Z,6.15
2022-12-27T00:21:16.302Z,9.98
2022-12-27T00:23:44.887Z,8.30
2022-12-27T00:26:14.975Z,6.78
2022-12-27T00:28:43.514Z,6.47
2022-12-27T00:31:10.733Z,4.97
2022-12-27T00:33:39.233Z,6.00
2022-12-27T00:36:08.350Z,12.25
2022-12-27T00:38:35.738Z,7.15
2022-12-27T00:41:03.087Z,10.73
2022-12-27T00:43:30.119Z,10.65
2022-12-27T00:45:58.354Z,6.85
2022-12-27T00:48:25.343Z,5.22
2022-12-27T00:50:58.502Z,7.43
2022-12-27T00:53:27.735Z,7.53
2022-12-27T00:55:58.964Z,4.53
2022-12-27T01:00:53.723Z,8.07
2022-12-27T01:03:21.854Z,6.45
2022-12-27T01:05:48.663Z,10.45
2022-12-27T01:08:15.336Z,5.32
2022-12-27T01:10:42.116Z,6.20
2022-12-27T01:13:08.846Z,7.15
2022-12-27T01:15:35.379Z,5.78
2022-12-27T01:18:01.983Z,10.35
2022-12-27T01:20:29.900Z,6.97
2022-12-27T01:22:56.536Z,8.10
2022-12-27T01:25:23.388Z,10.18
2022-12-27T01:27:50.014Z,8.00
2022-12-27T01:30:16.627Z,8.80
2022-12-27T01:32:43.246Z,5.82
2022-12-27T01:35:09.804Z,8.13
2022-12-27T01:37:37.770Z,8.60
2022-12-27T01:40:05.434Z,8.90
2022-12-27T01:42:32.025Z,8.52
2022-12-27T01:44:58.596Z,6.25
2022-12-27T01:47:33.048Z,7.82
2022-12-27T01:50:06.854Z,5.60
2022-12-27T01:52:37.476Z,4.18
2022-12-27T01:55:14.022Z,7.22
2022-12-27T01:57:41.898Z,5.93
2022-12-27T02:00:10.165Z,4.63
2022-12-27T02:02:37.459Z,12.25
2022-12-27T02:05:04.904Z,7.07
2022-12-27T02:07:38.292Z,6.20
2022-12-27T02:10:06.951Z,6.63
2022-12-27T02:12:33.842Z,5.95
2022-12-27T02:15:00.609Z,7.18
2022-12-27T02:17:30.611Z,5.18
2022-12-27T02:20:03.481Z,6.80
2022-12-27T02:23:03.506Z,8.18
2022-12-27T02:25:50.548Z,3.75
2022-12-27T02:28:31.064Z,10.63
2022-12-27T02:31:04.787Z,6.18
2022-12-27T02:33:37.050Z,6.97
2022-12-27T02:36:07.647Z,5.68
2022-12-27T02:38:37.553Z,4.95
2022-12-27T02:41:08.069Z,8.15
2022-12-27T02:43:34.680Z,4.50
2022-12-27T02:46:10.332Z,4.85
2022-12-27T02:48:36.956Z,4.72
2022-12-27T02:51:13.036Z,4.15
2022-12-27T02:53:50.943Z,4.88
2022-12-27T02:56:30.180Z,4.82
2022-12-27T02:59:09.471Z,6.07
2022-12-27T03:01:49.801Z,7.18
2022-12-27T03:04:28.440Z,4.03
2022-12-27T03:07:14.662Z,6.18
2022-12-27T03:09:49.285Z,6.30
2022-12-27T03:12:24.775Z,6.95
2022-12-27T03:14:59.823Z,5.90
2022-12-27T03:17:35.248Z,6.65
2022-12-27T03:20:07.293Z,9.93
2022-12-27T03:25:04.385Z,8.27
2022-12-27T03:27:34.628Z,5.97
2022-12-27T03:30:05.429Z,6.63
2022-12-27T03:32:36.233Z,10.35
2022-12-27T03:35:09.636Z,5.32
2022-12-27T03:37:39.785Z,4.47
2022-12-27T03:40:10.534Z,5.35
2022-12-27T03:42:41.841Z,3.60
2022-12-27T03:45:09.966Z,10.30
2022-12-27T03:47:47.208Z,6.70
2022-12-27T03:50:18.779Z,4.63
2022-12-27T03:52:48.985Z,6.63
2022-12-27T03:55:17.387Z,7.07
2022-12-27T03:57:44.304Z,8.00
2022-12-27T04:00:12.388Z,6.28
2022-12-27T04:02:44.609Z,7.05
2022-12-27T04:05:11.804Z,7.18
2022-12-27T04:07:38.394Z,5.20
2022-12-27T04:10:05.584Z,10.13
2022-12-27T04:12:32.257Z,7.53
2022-12-27T04:14:59.148Z,7.75
2022-12-27T04:17:25.971Z,4.10
2022-12-27T04:19:53.929Z,4.20
2022-12-27T04:22:20.460Z,3.83
2022-12-27T04:24:47.126Z,5.75
2022-12-27T04:27:13.628Z,7.40
2022-12-27T04:29:41.631Z,6.38
2022-12-27T04:32:08.171Z,6.07
2022-12-27T04:34:34.765Z,7.28
2022-12-27T04:37:03.864Z,6.32
2022-12-27T04:39:30.974Z,5.07
2022-12-27T04:41:57.613Z,9.18
2022-12-27T04:44:24.432Z,6.18
2022-12-27T04:46:51.200Z,5.20
2022-12-27T04:49:21.926Z,4.57
2022-12-27T04:51:49.121Z,6.22
2022-12-27T04:54:18.817Z,5.55
2022-12-27T04:56:45.318Z,6.60
2022-12-27T04:59:11.890Z,7.68
2022-12-27T05:01:39.037Z,9.10
2022-12-27T05:04:05.657Z,5.90
2022-12-27T05:06:32.242Z,3.47
2022-12-27T05:08:58.808Z,9.63
2022-12-27T05:11:26.886Z,6.40
2022-12-27T05:13:53.463Z,6.18
2022-12-27T05:16:20.308Z,9.02
2022-12-27T05:18:46.901Z,4.40
2022-12-27T05:21:13.428Z,6.10
2022-12-27T05:23:40.052Z,4.55
2022-12-27T05:26:06.641Z,10.98
2022-12-27T05:28:34.619Z,11.40
2022-12-27T05:31:02.204Z,4.75
2022-12-27T05:33:31.133Z,4.70
2022-12-27T05:35:59.092Z,8.05
2022-12-27T05:38:25.623Z,8.30
2022-12-27T05:40:57.563Z,10.43
2022-12-27T05:45:52.104Z,7.05
2022-12-27T05:48:19.064Z,7.53
2022-12-27T05:50:45.617Z,5.95
2022-12-27T05:53:12.497Z,8.65
2022-12-27T05:55:39.292Z,9.55
2022-12-27T05:58:06.503Z,6.18
2022-12-27T06:00:33.153Z,7.32
2022-12-27T06:03:02.265Z,10.05
2022-12-27T06:05:29.011Z,5.57
2022-12-27T06:07:55.620Z,5.90
2022-12-27T06:10:22.152Z,30.75
2022-12-27T06:12:48.756Z,6.68
2022-12-27T06:15:15.351Z,5.75
2022-12-27T06:17:41.903Z,7.38
2022-12-27T06:20:09.970Z,5.25
2022-12-27T06:22:36.668Z,9.10
2022-12-27T06:25:03.305Z,6.82
2022-12-27T06:27:29.870Z,4.75
2022-12-27T06:29:56.388Z,5.65
2022-12-27T06:32:22.999Z,7.57
2022-12-27T06:34:49.593Z,4.18
2022-12-27T06:37:17.551Z,4.05
2022-12-27T06:39:44.118Z,6.55
2022-12-27T06:42:10.785Z,6.88
2022-12-27T06:44:37.369Z,6.82
2022-12-27T06:47:03.919Z,6.18
2022-12-27T06:49:30.476Z,5.78
2022-12-27T06:51:59.744Z,6.80
2022-12-27T06:54:29.128Z,6.18
2022-12-27T06:56:55.828Z,6.70
2022-12-27T06:59:22.688Z,6.25
2022-12-27T07:01:49.292Z,6.35
2022-12-27T07:04:16.115Z,6.80
2022-12-27T07:06:42.716Z,4.82
2022-12-27T07:09:09.227Z,7.10
2022-12-27T07:11:37.561Z,6.28
2022-12-27T07:14:07.850Z,5.20
2022-12-27T07:16:34.940Z,7.03
2022-12-27T07:19:01.550Z,5.05
2022-12-27T07:21:29.197Z,6.50
2022-12-27T07:23:56.627Z,8.07
2022-12-27T07:26:24.727Z,7.38
2022-12-27T07:28:54.890Z,8.25
2022-12-27T07:31:23.068Z,11.75
2022-12-27T07:33:50.564Z,5.20
2022-12-27T07:36:18.907Z,7.25
2022-12-27T07:38:45.540Z,12.45
2022-12-27T07:41:13.349Z,7.30
2022-12-27T07:43:40.102Z,5.15
2022-12-27T07:46:10.827Z,5.97
2022-12-27T07:48:37.930Z,7.38
2022-12-27T07:51:04.959Z,10.48
2022-12-27T07:53:32.240Z,8.40
2022-12-27T07:55:59.033Z,11.18
2022-12-27T07:58:25.815Z,3.17
2022-12-27T08:00:52.658Z,4.03
2022-12-27T08:03:20.602Z,7.38
2022-12-27T08:05:47.715Z,8.88
2022-12-27T08:08:16.575Z,7.88
2022-12-27T08:10:43.712Z,8.15
2022-12-27T08:13:10.522Z,9.45
2022-12-27T08:15:37.966Z,7.20
2022-12-27T08:18:04.901Z,6.55
2022-12-27T08:20:33.043Z,6.97
2022-12-27T08:22:59.634Z,9.07
2022-12-27T08:25:26.551Z,8.73
2022-12-27T08:27:53.101Z,6.88
2022-12-27T08:30:20.072Z,9.30
2022-12-27T08:32:46.625Z,9.63
2022-12-27T08:35:42.365Z,10.00
2022-12-27T08:38:02.229Z,8.57
2022-12-27T08:40:29.124Z,11.57
2022-12-27T08:42:55.698Z,13.15
2022-12-27T08:45:22.425Z,9.25
2022-12-27T08:47:49.083Z,8.77
2022-12-27T08:50:15.845Z,5.15
2022-12-27T08:52:42.769Z,6.60
2022-12-27T08:55:10.791Z,7.40
2022-12-27T08:57:37.444Z,12.93
2022-12-27T09:00:04.849Z,10.93
2022-12-27T09:02:31.545Z,10.68
2022-12-27T09:04:58.135Z,8.02
2022-12-27T09:07:24.968Z,7.22
2022-12-27T09:09:51.567Z,9.27
2022-12-27T09:12:21.181Z,10.10
2022-12-27T09:14:50.460Z,16.52
2022-12-27T09:17:18.328Z,23.35
2022-12-27T09:19:44.855Z,17.27
2022-12-27T09:22:13.967Z,13.57
2022-12-27T09:24:42.646Z,7.65
2022-12-27T09:27:09.282Z,4.80
2022-12-27T09:29:40.419Z,8.60
2022-12-27T09:32:08.928Z,6.40
2022-12-27T09:34:35.529Z,11.85
2022-12-27T09:37:02.131Z,8.05
2022-12-27T09:39:28.886Z,5.88
2022-12-27T09:45:16.743Z,9.70
2022-12-27T09:47:53.107Z,7.70
2022-12-27T09:50:28.045Z,7.40
2022-12-27T09:53:02.425Z,5.53
2022-12-27T09:55:43.236Z,12.20
2022-12-27T09:58:24.654Z,5.68
2022-12-27T10:00:59.411Z,10.60
2022-12-27T10:03:32.970Z,6.47
2022-12-27T10:06:09.699Z,3.10
2022-12-27T10:08:47.973Z,6.32
2022-12-27T10:11:23.215Z,4.03
2022-12-27T10:13:57.023Z,6.07
2022-12-27T10:16:32.697Z,7.78
2022-12-27T10:19:13.716Z,9.38
2022-12-27T10:21:54.595Z,9.30
2022-12-27T10:24:26.639Z,8.30
2022-12-27T10:26:55.243Z,5.15
2022-12-27T10:29:24.102Z,6.28
2022-12-27T10:31:52.438Z,5.03
2022-12-27T10:34:20.929Z,5.25
2022-12-27T10:36:47.775Z,4.25
2022-12-27T10:39:18.608Z,5.43
2022-12-27T10:41:54.144Z,6.00
2022-12-27T10:44:23.059Z,7.78
2022-12-27T10:46:54.896Z,3.00
2022-12-27T10:51:51.890Z,4.10
2022-12-27T10:54:22.768Z,4.00
2022-12-27T10:56:49.666Z,10.32
2022-12-27T10:59:18.283Z,5.03
2022-12-27T11:01:48.614Z,3.70
2022-12-27T11:04:20.963Z,5.53
2022-12-27T11:06:49.844Z,7.55
2022-12-27T11:09:26.142Z,7.50
2022-12-27T11:12:10.107Z,6.10
2022-12-27T11:14:36.708Z,5.40
2022-12-27T11:17:08.963Z,9.40
2022-12-27T11:19:39.818Z,5.18
2022-12-27T11:22:08.375Z,6.63
2022-12-27T11:24:35.708Z,6.28
2022-12-27T11:27:03.734Z,10.75
2022-12-27T11:29:32.223Z,8.73
2022-12-27T11:32:06.520Z,5.50
2022-12-27T11:34:38.517Z,3.97
2022-12-27T11:37:09.150Z,5.15
2022-12-27T11:39:41.455Z,8.13
2022-12-27T11:42:15.168Z,9.27
2022-12-27T11:44:46.064Z,6.40
2022-12-27T11:47:22.238Z,5.50
2022-12-27T11:49:53.717Z,4.95
2022-12-27T11:52:45.092Z,3.75
2022-12-27T11:55:27.935Z,5.55
2022-12-27T11:58:16.565Z,5.65
2022-12-27T12:00:52.852Z,6.07
2022-12-27T12:03:48.516Z,4.82
2022-12-27T12:06:23.176Z,6.72
2022-12-27T12:12:28.208Z,3.33
2022-12-27T12:15:33.810Z,4.80
2022-12-27T12:18:16.959Z,3.83
2022-12-27T12:21:03.495Z,3.78
2022-12-27T12:23:50.248Z,5.63
2022-12-27T12:26:21.196Z,6.82
2022-12-27T12:29:25.524Z,9.87
2022-12-27T12:32:12.562Z,4.88
2022-12-27T12:34:59.011Z,7.28
2022-12-27T12:37:47.072Z,5.53
2022-12-27T12:40:37.004Z,5.00
2022-12-27T12:43:20.633Z,8.30
2022-12-27T12:46:00.535Z,5.93
2022-12-27T12:48:48.143Z,4.88
2022-12-27T12:51:35.732Z,8.20
2022-12-27T12:54:24.628Z,6.55
2022-12-27T12:57:08.385Z,4.55
2022-12-27T13:00:10.523Z,4.97
2022-12-27T13:03:12.827Z,7.78
2022-12-27T13:08:22.078Z,7.65
2022-12-27T13:11:12.907Z,6.15
2022-12-27T13:13:55.117Z,5.70
2022-12-27T13:16:32.936Z,7.93
2022-12-27T13:19:13.108Z,6.70
2022-12-27T13:21:58.087Z,6.45
2022-12-27T13:24:38.256Z,4.15
2022-12-27T13:27:13.061Z,3.65
2022-12-27T13:30:01.751Z,5.32
2022-12-27T13:32:46.597Z,8.18
2022-12-27T13:35:31.028Z,3.53
2022-12-27T13:38:12.318Z,5.38
2022-12-27T13:41:11.000Z,5.07
2022-12-27T13:43:54.408Z,4.07
2022-12-27T13:46:57.600Z,7.25
2022-12-27T13:49:49.073Z,6.55
2022-12-27T13:52:34.901Z,4.43
2022-12-27T13:55:44.306Z,9.10
2022-12-27T13:58:46.188Z,6.05
2022-12-27T14:01:36.173Z,4.55
2022-12-27T14:04:47.463Z,5.30
2022-12-27T14:07:38.582Z,6.80
2022-12-27T14:10:22.607Z,8.40
2022-12-27T14:12:55.790Z,5.32
2022-12-27T14:15:27.330Z,6.32
2022-12-27T14:18:11.598Z,6.28
2022-12-27T14:21:03.786Z,5.97
2022-12-27T14:23:42.444Z,5.95
2022-12-27T14:26:46.079Z,5.28
2022-12-27T14:29:39.340Z,5.28
2022-12-27T14:32:39.221Z,9.70
2022-12-27T14:35:28.864Z,5.50
2022-12-27T14:38:18.817Z,5.32
2022-12-27T14:41:23.179Z,9.30
2022-12-27T14:44:24.728Z,4.90
2022-12-27T14:47:30.386Z,9.77
2022-12-27T14:50:33.158Z,5.45
2022-12-27T14:53:35.559Z,4.57
2022-12-27T14:56:18.076Z,5.68
2022-12-27T14:58:59.133Z,5.22
2022-12-27T15:01:39.506Z,7.43
2022-12-27T15:04:34.640Z,7.60
2022-12-27T15:07:21.484Z,7.57
2022-12-27T15:09:57.245Z,7.43
2022-12-27T15:12:30.582Z,5.78
2022-12-27T15:15:28.443Z,6.70
2022-12-27T15:18:15.456Z,4.47
2022-12-27T15:20:57.232Z,6.63
2022-12-27T15:23:34.206Z,6.95
2022-12-27T15:26:12.668Z,4.15
2022-12-27T15:28:54.911Z,5.97
2022-12-27T15:31:29.637Z,6.15
2022-12-27T15:34:15.556Z,6.60
2022-12-27T15:36:43.861Z,5.35
2022-12-27T15:39:43.997Z,7.55
2022-12-27T15:42:48.383Z,4.70
2022-12-27T15:45:32.564Z,5.97
2022-12-27T15:48:38.321Z,5.93
2022-12-27T15:51:16.808Z,3.13
2022-12-27T15:54:19.002Z,5.53
2022-12-27T15:57:18.246Z,6.07
2022-12-27T15:59:50.005Z,9.25
2022-12-27T16:02:28.249Z,5.65
2022-12-27T16:04:58.284Z,3.88
2022-12-27T16:07:46.379Z,8.88
2022-12-27T16:10:36.219Z,6.80
2022-12-27T16:13:20.976Z,6.13
2022-12-27T16:15:53.209Z,7.63
2022-12-27T16:18:54.088Z,8.60
2022-12-27T16:21:23.504Z,6.72
2022-12-27T16:23:54.732Z,5.07
2022-12-27T16:26:23.994Z,6.95
2022-12-27T16:28:57.061Z,8.52
2022-12-27T16:31:26.226Z,9.77
2022-12-27T16:33:55.390Z,5.78
2022-12-27T16:36:28.732Z,3.53
2022-12-27T16:39:17.569Z,7.38
2022-12-27T16:42:02.266Z,4.90
2022-12-27T16:44:44.910Z,3.55
2022-12-27T16:47:29.474Z,3.83
2022-12-27T16:50:25.523Z,3.22
2022-12-27T16:53:13.518Z,4.15
2022-12-27T16:56:14.746Z,8.30
2022-12-27T16:58:41.894Z,5.57
2022-12-27T17:01:30.284Z,6.18
2022-12-27T17:03:57.708Z,7.25
2022-12-27T17:06:53.916Z,3.17
2022-12-27T17:09:42.060Z,4.20
2022-12-27T17:12:21.611Z,4.57
2022-12-27T17:14:52.393Z,7.80
2022-12-27T17:17:21.272Z,4.63
2022-12-27T17:19:54.233Z,5.57
2022-12-27T17:22:21.797Z,5.30
2022-12-27T17:24:49.538Z,7.57
2022-12-27T17:27:25.504Z,7.60
2022-12-27T17:30:06.656Z,12.82
2022-12-27T17:32:52.645Z,5.95
2022-12-27T17:35:29.076Z,6.80
2022-12-27T17:38:11.928Z,9.88
2022-12-27T17:40:48.681Z,10.05
2022-12-27T17:43:28.925Z,11.65
2022-12-27T17:46:11.456Z,4.90
2022-12-27T17:48:38.521Z,7.15
2022-12-27T17:51:09.487Z,10.68
2022-12-27T17:53:45.873Z,8.83
2022-12-27T17:56:19.066Z,8.15
2022-12-27T17:58:47.292Z,8.18
2022-12-27T18:01:14.273Z,9.18
2022-12-27T18:03:44.334Z,13.10
2022-12-27T18:06:11.579Z,7.45
2022-12-27T18:08:39.418Z,8.65
2022-12-27T18:11:06.445Z,8.75
2022-12-27T18:13:35.049Z,7.65
2022-12-27T18:16:11.780Z,9.65
2022-12-27T18:18:38.668Z,9.75
2022-12-27T18:21:06.185Z,10.15
2022-12-27T18:23:39.893Z,8.77
2022-12-27T18:26:13.489Z,5.80
2022-12-27T18:28:41.981Z,6.57
2022-12-27T18:31:14.877Z,7.30
2022-12-27T18:33:44.236Z,9.02
2022-12-27T18:36:15.777Z,7.85
2022-12-27T18:38:45.532Z,10.18
2022-12-27T18:41:17.203Z,14.10
2022-12-27T18:43:46.840Z,11.18
2022-12-27T18:46:17.543Z,12.68
2022-12-27T18:48:44.459Z,10.20
2022-12-27T18:51:11.297Z,10.55
2022-12-27T18:53:38.732Z,11.13
2022-12-27T18:56:07.107Z,12.75
2022-12-27T18:58:34.682Z,17.38
2022-12-27T19:01:03.938Z,20.50
2022-12-27T19:03:38.262Z,18.33
2022-12-27T19:06:10.231Z,16.42
2022-12-27T19:08:38.747Z,18.45
2022-12-27T19:11:06.518Z,14.45
2022-12-27T19:13:41.592Z,17.75
2022-12-27T19:16:19.519Z,19.85
2022-12-27T19:18:51.291Z,16.48
2022-12-27T19:21:18.009Z,17.63
2022-12-27T19:23:44.591Z,20.30
2022-12-27T19:26:25.207Z,19.50
2022-12-27T19:29:00.183Z,16.92
2022-12-27T19:31:27.168Z,22.48
2022-12-27T19:33:58.455Z,20.50
2022-12-27T19:36:28.800Z,18.58
2022-12-27T19:38:55.463Z,14.32
2022-12-27T19:41:22.008Z,14.18
2022-12-27T19:43:48.773Z,10.95
2022-12-27T19:46:15.643Z,13.38
2022-12-27T19:48:42.218Z,15.95
2022-12-27T19:51:14.910Z,11.25
2022-12-27T19:53:43.579Z,13.30
2022-12-27T19:56:11.582Z,13.38
2022-12-27T19:58:38.359Z,10.48
2022-12-27T20:01:05.148Z,11.63
2022-12-27T20:03:31.774Z,9.23
2022-12-27T20:06:14.360Z,10.55
2022-12-27T20:08:49.786Z,12.85
2022-12-27T20:11:18.245Z,11.57
2022-12-27T20:13:45.129Z,13.15
2022-12-27T20:16:13.759Z,12.05
2022-12-27T20:18:41.151Z,12.90
2022-12-27T20:21:12.142Z,12.10
2022-12-27T20:23:38.739Z,17.87
2022-12-27T20:26:06.722Z,12.98
2022-12-27T20:28:33.613Z,14.77
2022-12-27T20:31:05.593Z,13.38
2022-12-27T20:35:58.819Z,10.13
2022-12-27T20:38:26.186Z,14.32
2022-12-27T20:40:53.031Z,11.00
2022-12-27T20:43:20.983Z,16.15
2022-12-27T20:45:48.001Z,14.25
2022-12-27T20:48:14.961Z,19.60
2022-12-27T20:50:41.737Z,17.42
2022-12-27T20:53:09.301Z,16.40
2022-12-27T20:55:36.105Z,24.58
2022-12-27T20:58:03.331Z,18.83
2022-12-27T21:00:31.165Z,23.30
2022-12-27T21:02:57.878Z,22.50
2022-12-27T21:05:24.481Z,11.20
2022-12-27T21:07:51.045Z,7.40
2022-12-27T21:10:17.594Z,5.30
2022-12-27T21:12:44.159Z,9.63
2022-12-27T21:15:10.832Z,21.58
2022-12-27T21:17:38.787Z,25.20
2022-12-27T21:20:06.573Z,27.33
2022-12-27T21:22:33.181Z,27.45
2022-12-27T21:24:59.704Z,21.42
2022-12-27T21:27:26.311Z,24.35
2022-12-27T21:29:52.809Z,23.67
2022-12-27T21:32:19.417Z,22.48
2022-12-27T21:34:47.275Z,14.68
2022-12-27T21:37:13.881Z,8.43
2022-12-27T21:39:40.663Z,9.90
2022-12-27T21:42:07.334Z,14.57
2022-12-27T21:44:33.886Z,11.45
2022-12-27T21:47:00.496Z,17.70
2022-12-27T21:49:27.159Z,12.75
2022-12-27T21:51:55.105Z,10.57
2022-12-27T21:54:21.694Z,10.25
2022-12-27T21:56:48.499Z,13.85
2022-12-27T21:59:15.049Z,16.02
2022-12-27T22:01:50.731Z,18.70
2022-12-27T22:04:19.554Z,15.43
2022-12-27T22:06:47.464Z,13.43
2022-12-27T22:09:16.128Z,14.52
2022-12-27T22:11:42.959Z,11.50
2022-12-27T22:14:10.164Z,14.65
2022-12-27T22:16:38.618Z,15.98
2022-12-27T22:19:05.748Z,13.70
2022-12-27T22:21:33.848Z,20.13
2022-12-27T22:24:02.067Z,25.17
2022-12-27T22:26:33.425Z,13.75
2022-12-27T22:29:00.500Z,12.13
2022-12-27T22:31:30.475Z,8.32
2022-12-27T22:33:57.206Z,8.73
2022-12-27T22:36:25.754Z,9.77
2022-12-27T22:38:54.752Z,5.30
2022-12-27T22:41:23.339Z,5.32
2022-12-27T22:43:53.793Z,6.50
2022-12-27T22:46:20.504Z,6.63
2022-12-27T22:48:49.491Z,11.30
2022-12-27T22:51:18.695Z,10.90
2022-12-27T22:53:45.562Z,15.05
2022-12-27T22:56:14.313Z,11.95
2022-12-27T22:58:41.157Z,13.57
2022-12-27T23:01:12.216Z,13.68
2022-12-27T23:03:38.984Z,10.43
2022-12-27T23:06:05.835Z,11.45
2022-12-27T23:08:32.477Z,8.32
2022-12-27T23:11:02.390Z,12.00
2022-12-27T23:13:29.278Z,8.27
2022-12-27T23:15:56.460Z,7.13
2022-12-27T23:18:24.555Z,8.55
2022-12-27T23:21:20.347Z,8.35
2022-12-27T23:23:37.829Z,5.88
2022-12-27T23:26:06.407Z,6.60
2022-12-27T23:28:35.387Z,9.23
2022-12-27T23:31:02.425Z,12.75
2022-12-27T23:33:30.696Z,14.10
2022-12-27T23:35:57.392Z,9.73
2022-12-27T23:38:23.998Z,8.85
2022-12-27T23:40:53.335Z,13.27
2022-12-27T23:43:51.144Z,8.18
2022-12-27T23:46:08.617Z,8.15
2022-12-27T23:48:36.536Z,9.02
2022-12-27T23:51:03.299Z,10.63
2022-12-27T23:53:29.864Z,8.23
2022-12-27T23:55:56.760Z,9.23
2022-12-27T23:58:23.399Z,9.98
